Saint Germain, WI (54558)

7:17 AM CDT on July 24, 2016 (GMT -0500)
Timbergate | | Change Station

Elev 1654 ft 45.91 °N, 89.49 °W | Updated 13 minutes ago

Clear
Clear
66.9 °F
Feels Like 66.9 °F
N
0.0
Wind Variable Wind from NE

Today
High -- | Low -- °F
--% Chance of Precip.
Yesterday
High -- | Low -- °F
Precip. -- in
Pressure 29.75 in
Visibility 10.0 miles
Clouds Clear
Dew Point 67 °F
Humidity 99%
Rainfall 0.15 in
Snow Depth Not available.
5:32 AM 8:36 PM
Waning Gibbous, 77% visible
METAR KEGV 241155Z AUTO 23003KT 10SM CLR 19/19 A2975 RMK AO2 T01920192 10205 20192
Pressure 29.75 in
Visibility 10.0 miles
Clouds Clear
Dew Point 67 °F
Humidity 99%
Rainfall 0.15 in
Snow Depth Not available.
5:32 AM 8:36 PM
Waning Gibbous, 77% visible
METAR KEGV 241155Z AUTO 23003KT 10SM CLR 19/19 A2975 RMK AO2 T01920192 10205 20192

10-Day Weather Forecast

Almanac

Astronomy

Jul. 24, 2016 Rise Set
Actual Time
Civil Twilight
Nautical Twilight
Astronomical Twilight
Moon
Length of Visible Light
Length of Day
Tomorrow will be .
, % of the Moon is Illuminated

Today's Extremes

State Highs State Lows

Community

WunderPhotos

Upload Photos

1,927,053 photos uploaded!

WunderBlog® & News

Nearby

Air Quality

  Air Quality AQ Index Pollutant
Not available.

Snow Depth

Station Depth Elevation

Earthquake Activity

City Distance Mag. Time & Date
Minimum magnitude displayed is 2.5.

Coastal Water Temperatures

Place Temperature

Stations

Nearby Weather Stations

Station Location Temp. Windchill Dew Point Humidity Wind Precip. Elev Updated Type
                   

Watches & Warnings

There are currently no watches in effect.